UTTT/TAS METAR and TAF weather

Enter ICAO airport designator
Station Type Date Time Source
UTTT METAR 2019/04/20 22:00 UTC NOAA

UTTT 202200Z 08006KT 1700 R08L/P2000D BR OVC002 13/13 Q1007 R08L/29//50 NOSIG RMK BASE260


Station Type Date Time Source
UTTT Decoded METAR 2019/04/20 22:00 UTC NOAA

Tashkent, Uzbekistan (UTTT) 41-16N 069-16E 488M
Apr 20, 2019 - 06:00 PM EDT / 2019.04.20 2200 UTC
Wind: from the E (080 degrees) at 7 MPH (6 KT):0
Visibility: 1 mile(s):0
Sky conditions: overcast
Weather: mist
Temperature: 55 F (13 C)
Dew Point: 55 F (13 C)
Relative Humidity: 100%
Pressure (altimeter): 29.74 in. Hg (1007 hPa)
ob: UTTT 202200Z 08006KT 1700 R08L/P2000D BR OVC002 13/13 Q1007 R08L/29//50 NOSIG RMK BASE260
cycle: 22

Station Type Date Time Source
UTTT TAF 2019/04/20 18:09 UTC NOAA

TAF TAF UTTT 201700Z 2018/2118 34008KT 7000 SCT010 BKN030CB BKN100
TEMPO 2018/2103 VRB02KT 1000 BR SCT003 BKN010 OVC100
TEMPO 2103/2118 VRB20G30KT 3000 -TSRA BR BKN020CB OVC100

Example: see airport list